Time;durP1;ratioP1;P1;durP2;ratioP2;P2;SDS_P1;SDS_P2;PMS_P1;PMS_P2;Temp;Humidity;BMP_temperature;BMP_pressure;BME280_temperature;BME280_humidity;BME280_pressure;Samples;Min_cycle;Max_cycle;Signal;HPM_P1;HPM_P2
2023/08/02 00:02:05;;;;;;;2.78;1.30;;;16.00;99.90;;;;;;5055637;28;20559;-79
2023/08/02 00:04:31;;;;;;;4.72;1.50;;;16.00;99.90;;;;;;5034438;28;20037;-78
2023/08/02 00:06:56;;;;;;;7.47;1.77;;;15.90;99.90;;;;;;5022353;28;20056;-79
2023/08/02 00:09:22;;;;;;;4.80;1.85;;;15.90;99.90;;;;;;5017759;28;20042;-79
2023/08/02 00:11:51;;;;;;;7.43;1.92;;;16.00;99.90;;;;;;5033762;28;20060;-79
2023/08/02 00:14:16;;;;;;;5.10;1.75;;;16.00;99.90;;;;;;5017824;28;20060;-80
2023/08/02 00:16:42;;;;;;;6.53;1.77;;;15.90;99.90;;;;;;5013968;28;20409;-79
2023/08/02 00:19:08;;;;;;;6.65;1.77;;;15.90;99.90;;;;;;4998061;28;20474;-78
2023/08/02 00:21:33;;;;;;;8.20;1.90;;;16.00;99.90;;;;;;5014433;28;20038;-78
2023/08/02 00:23:59;;;;;;;6.07;1.90;;;16.00;99.90;;;;;;5014249;28;20044;-78
2023/08/02 00:26:25;;;;;;;6.22;1.85;;;15.90;99.90;;;;;;5026993;28;20188;-77
2023/08/02 00:28:50;;;;;;;6.32;1.90;;;16.00;99.90;;;;;;5002316;28;20034;-78
2023/08/02 00:31:16;;;;;;;6.82;1.80;;;16.00;99.90;;;;;;5014076;28;20041;-78
2023/08/02 00:33:41;;;;;;;8.20;2.42;;;16.00;99.90;;;;;;5017003;28;20051;-78
2023/08/02 00:36:07;;;;;;;5.47;2.00;;;15.90;99.90;;;;;;5027840;28;20038;-78
2023/08/02 00:38:33;;;;;;;6.32;2.08;;;16.00;99.90;;;;;;5015418;28;20081;-78
2023/08/02 00:41:05;;;;;;;6.47;1.90;;;15.90;99.90;;;;;;5013958;28;20045;-79
2023/08/02 00:43:57;;;;;;;8.80;2.30;;;15.90;99.90;;;;;;5013899;28;20046;-78
2023/08/02 00:46:23;;;;;;;6.97;2.50;;;16.00;99.90;;;;;;5011623;28;20555;-78
2023/08/02 00:48:49;;;;;;;9.18;2.78;;;16.00;99.90;;;;;;5013840;28;20054;-78
2023/08/02 00:51:15;;;;;;;8.35;2.40;;;15.90;99.90;;;;;;5025561;28;20121;-78
2023/08/02 00:53:45;;;;;;;8.00;2.70;;;15.90;99.90;;;;;;5032785;28;20040;-78
2023/08/02 00:56:13;;;;;;;8.18;2.67;;;15.90;99.90;;;;;;5007196;28;20064;-78
2023/08/02 00:58:39;;;;;;;6.85;2.60;;;15.90;99.90;;;;;;5013764;28;20041;-78
2023/08/02 01:01:07;;;;;;;7.60;2.60;;;15.90;99.90;;;;;;5014688;28;20041;-78
2023/08/02 01:03:44;;;;;;;6.68;2.60;;;15.90;99.90;;;;;;5013868;28;20057;-78
2023/08/02 01:06:17;;;;;;;8.48;2.75;;;16.00;99.90;;;;;;5023173;28;20045;-79
2023/08/02 01:08:46;;;;;;;8.27;3.00;;;15.90;99.90;;;;;;5020393;28;20050;-78
2023/08/02 01:11:33;;;;;;;6.60;2.63;;;15.90;99.90;;;;;;5024291;28;20494;-79
2023/08/02 01:13:59;;;;;;;6.03;2.60;;;15.90;99.90;;;;;;5016652;28;20041;-79
2023/08/02 01:16:26;;;;;;;7.32;2.78;;;15.90;99.90;;;;;;5022145;28;20087;-79
2023/08/02 01:18:51;;;;;;;8.35;3.10;;;15.90;99.90;;;;;;5013299;28;20120;-79
2023/08/02 01:21:17;;;;;;;7.35;2.90;;;15.90;99.90;;;;;;4996595;28;20088;-79
2023/08/02 01:23:43;;;;;;;6.38;3.00;;;15.90;99.90;;;;;;5031518;28;20054;-79
2023/08/02 01:26:09;;;;;;;7.50;2.83;;;15.90;99.90;;;;;;5027727;28;20052;-78
2023/08/02 01:28:43;;;;;;;5.28;2.58;;;15.90;99.90;;;;;;4996209;28;20045;-79
2023/08/02 01:31:10;;;;;;;6.30;2.85;;;15.90;99.90;;;;;;5026586;28;20064;-79
2023/08/02 01:33:46;;;;;;;7.60;3.00;;;15.90;99.90;;;;;;5005345;28;20088;-78
2023/08/02 01:36:12;;;;;;;6.78;2.83;;;15.80;99.90;;;;;;5013022;28;20034;-78
2023/08/02 01:38:37;;;;;;;8.80;3.15;;;15.90;99.90;;;;;;5015937;28;20099;-78
2023/08/02 01:41:03;;;;;;;10.32;3.30;;;16.00;99.90;;;;;;5031133;28;20045;-79
2023/08/02 01:43:29;;;;;;;8.95;3.05;;;15.90;99.90;;;;;;5005237;28;20042;-78
2023/08/02 01:45:54;;;;;;;8.25;3.30;;;15.90;99.90;;;;;;5014458;28;20065;-79
2023/08/02 01:48:22;;;;;;;7.25;3.00;;;15.90;99.90;;;;;;5032445;28;20049;-79
2023/08/02 01:50:47;;;;;;;7.50;3.03;;;15.90;99.90;;;;;;5031844;28;20498;-79
2023/08/02 01:53:13;;;;;;;7.68;3.08;;;15.90;99.90;;;;;;5015402;28;20136;-79
2023/08/02 01:55:38;;;;;;;10.48;3.20;;;15.90;99.90;;;;;;5016087;28;20041;-79
2023/08/02 01:58:04;;;;;;;7.03;2.97;;;15.90;99.90;;;;;;5013881;28;20037;-79
2023/08/02 02:00:29;;;;;;;5.88;2.90;;;15.90;99.90;;;;;;5032378;28;20041;-79
2023/08/02 02:02:57;;;;;;;9.45;3.20;;;15.90;99.90;;;;;;5032356;28;20405;-79
2023/08/02 02:05:23;;;;;;;9.00;3.33;;;15.90;99.90;;;;;;5031705;28;20076;-79
2023/08/02 02:07:49;;;;;;;9.88;3.08;;;15.90;99.90;;;;;;5031638;28;20041;-79
2023/08/02 02:10:14;;;;;;;9.77;3.40;;;15.90;99.90;;;;;;5015126;28;20037;-79
2023/08/02 02:12:40;;;;;;;7.15;3.30;;;15.90;99.90;;;;;;5033394;28;20167;-79
2023/08/02 02:15:06;;;;;;;6.80;3.00;;;15.80;99.90;;;;;;5018355;28;20124;-78
2023/08/02 02:17:31;;;;;;;9.23;3.30;;;15.80;99.90;;;;;;5012441;28;20038;-79
2023/08/02 02:19:57;;;;;;;6.35;2.90;;;15.80;99.90;;;;;;4998349;28;20076;-78
2023/08/02 02:22:23;;;;;;;8.50;3.15;;;15.80;99.90;;;;;;5031891;28;20386;-79
2023/08/02 02:24:48;;;;;;;8.18;3.60;;;15.80;99.90;;;;;;5032022;28;20069;-79
2023/08/02 02:27:14;;;;;;;9.43;3.15;;;15.80;99.90;;;;;;5014731;28;20413;-79
2023/08/02 02:29:39;;;;;;;7.70;3.47;;;15.80;99.90;;;;;;5015135;28;20079;-79
2023/08/02 02:32:05;;;;;;;6.90;3.00;;;15.90;99.90;;;;;;5015582;28;20033;-79
2023/08/02 02:34:31;;;;;;;8.38;3.50;;;15.80;99.90;;;;;;5017126;28;20504;-79
2023/08/02 02:36:56;;;;;;;9.02;3.70;;;15.90;99.90;;;;;;5038472;28;20041;-79
2023/08/02 02:39:24;;;;;;;12.13;3.50;;;15.90;99.90;;;;;;5038438;28;20128;-79
2023/08/02 02:41:49;;;;;;;8.15;3.53;;;15.80;99.90;;;;;;5011874;28;20394;-79
2023/08/02 02:44:15;;;;;;;8.75;3.35;;;15.80;99.90;;;;;;5018789;28;20034;-79
2023/08/02 02:46:40;;;;;;;8.50;3.40;;;15.90;99.90;;;;;;5018832;28;20048;-79
2023/08/02 02:49:06;;;;;;;13.98;3.90;;;15.80;99.90;;;;;;5018585;28;20037;-78
2023/08/02 02:51:32;;;;;;;11.80;3.30;;;15.80;99.90;;;;;;5031127;28;20037;-79
2023/08/02 02:53:57;;;;;;;10.18;3.42;;;15.80;99.90;;;;;;5020126;28;20461;-79
2023/08/02 02:56:23;;;;;;;9.93;3.30;;;15.90;99.90;;;;;;5037510;28;20116;-78
2023/08/02 02:58:48;;;;;;;10.07;3.45;;;15.90;99.90;;;;;;5039624;28;20037;-78
2023/08/02 03:01:14;;;;;;;11.48;3.65;;;15.90;99.90;;;;;;5033753;28;20044;-79
2023/08/02 03:03:39;;;;;;;11.57;3.92;;;15.90;99.90;;;;;;5021755;28;20045;-78
2023/08/02 03:06:05;;;;;;;14.98;4.25;;;15.90;99.90;;;;;;5038416;28;20041;-78
2023/08/02 03:08:31;;;;;;;11.02;3.67;;;15.90;99.90;;;;;;5021658;28;20041;-79
2023/08/02 03:10:56;;;;;;;10.63;3.67;;;15.90;99.90;;;;;;5038841;28;20045;-79
2023/08/02 03:13:22;;;;;;;15.75;3.85;;;16.00;99.90;;;;;;5021429;28;20457;-78
2023/08/02 03:15:48;;;;;;;12.80;4.45;;;16.00;99.90;;;;;;5020869;28;20030;-79
2023/08/02 03:18:14;;;;;;;10.07;3.58;;;16.10;99.90;;;;;;5021205;28;20068;-78
2023/08/02 03:20:40;;;;;;;8.57;3.60;;;16.00;99.90;;;;;;5003066;28;20042;-79
2023/08/02 03:23:06;;;;;;;11.00;4.40;;;15.90;99.90;;;;;;5001795;28;20486;-79
2023/08/02 03:25:31;;;;;;;12.60;4.05;;;15.90;99.90;;;;;;5007365;28;20037;-79
2023/08/02 03:27:57;;;;;;;11.90;4.15;;;15.90;99.90;;;;;;5038024;28;20061;-79
2023/08/02 03:30:22;;;;;;;12.30;4.05;;;15.80;99.90;;;;;;5020801;28;20493;-79
2023/08/02 03:32:48;;;;;;;12.30;4.22;;;15.80;99.90;;;;;;5039116;28;20041;-78
2023/08/02 03:35:14;;;;;;;12.48;4.80;;;16.00;99.90;;;;;;5021386;28;20044;-79
2023/08/02 03:37:39;;;;;;;12.85;4.68;;;15.90;99.90;;;;;;5037928;28;20116;-79
2023/08/02 03:40:05;;;;;;;12.85;4.63;;;15.80;99.90;;;;;;5006906;28;20052;-79
2023/08/02 03:42:31;;;;;;;13.85;4.65;;;15.80;99.90;;;;;;5001569;28;20087;-79
2023/08/02 03:44:56;;;;;;;12.18;4.13;;;15.80;99.90;;;;;;5018089;28;20096;-79
2023/08/02 03:47:22;;;;;;;14.18;5.00;;;15.80;99.90;;;;;;5017537;28;20064;-79
2023/08/02 03:49:47;;;;;;;12.50;4.60;;;15.80;99.90;;;;;;5034628;28;20115;-79
2023/08/02 03:52:14;;;;;;;12.95;4.38;;;15.80;99.90;;;;;;5034876;28;20126;-79
2023/08/02 03:54:40;;;;;;;13.65;4.63;;;15.80;99.90;;;;;;5031561;28;20059;-79
2023/08/02 03:57:07;;;;;;;12.80;5.00;;;15.70;99.90;;;;;;5014819;28;20034;-79
2023/08/02 03:59:32;;;;;;;13.85;4.85;;;15.70;99.90;;;;;;5020107;28;20052;-79
2023/08/02 04:01:58;;;;;;;16.00;5.00;;;15.70;99.90;;;;;;5018174;28;20045;-79
2023/08/02 04:04:24;;;;;;;13.45;4.85;;;15.70;99.90;;;;;;5034560;28;20033;-79
2023/08/02 04:06:49;;;;;;;13.20;4.80;;;15.70;99.90;;;;;;5017385;28;20473;-79
2023/08/02 04:09:15;;;;;;;12.80;4.75;;;15.70;99.90;;;;;;5018116;28;20079;-79
2023/08/02 04:11:40;;;;;;;14.52;5.40;;;15.70;99.90;;;;;;5021182;28;20034;-79
2023/08/02 04:14:06;;;;;;;15.73;5.50;;;15.70;99.90;;;;;;5015612;28;20042;-79
2023/08/02 04:16:31;;;;;;;12.60;5.00;;;15.70;99.90;;;;;;5026885;28;20045;-79
2023/08/02 04:18:57;;;;;;;14.57;5.18;;;15.80;99.90;;;;;;5034085;28;20037;-79
2023/08/02 04:21:23;;;;;;;16.27;5.20;;;15.70;99.90;;;;;;5033482;28;20084;-79
2023/08/02 04:23:49;;;;;;;14.15;5.22;;;15.70;99.90;;;;;;5017543;28;20041;-79
2023/08/02 04:26:15;;;;;;;11.75;5.00;;;15.80;99.90;;;;;;5001171;28;20054;-80
2023/08/02 04:28:41;;;;;;;14.57;4.93;;;15.70;99.90;;;;;;5014230;28;20155;-80
2023/08/02 04:31:06;;;;;;;14.75;5.38;;;15.70;99.90;;;;;;5028566;28;20045;-80
2023/08/02 04:33:32;;;;;;;13.32;5.32;;;15.70;99.90;;;;;;5033793;28;20131;-80
2023/08/02 04:35:59;;;;;;;12.23;5.07;;;15.70;99.90;;;;;;5009113;28;20034;-80
2023/08/02 04:38:25;;;;;;;13.00;5.70;;;15.70;99.90;;;;;;4997699;28;20040;-80
2023/08/02 04:40:51;;;;;;;11.45;5.43;;;15.70;99.90;;;;;;5015323;28;20042;-80
2023/08/02 04:43:16;;;;;;;13.25;5.78;;;15.60;99.90;;;;;;5014130;28;20037;-80
2023/08/02 04:45:42;;;;;;;12.57;5.43;;;15.60;99.90;;;;;;5017205;28;20524;-80
2023/08/02 04:48:07;;;;;;;13.65;5.72;;;15.50;99.90;;;;;;5017092;28;20087;-80
2023/08/02 04:50:33;;;;;;;13.38;5.10;;;15.50;99.90;;;;;;5032936;28;20102;-80
2023/08/02 04:52:59;;;;;;;12.35;5.00;;;15.60;99.90;;;;;;5033513;28;20155;-80
2023/08/02 04:55:25;;;;;;;12.30;5.05;;;15.60;99.90;;;;;;5008253;28;20056;-80
2023/08/02 04:57:50;;;;;;;14.35;5.72;;;15.60;99.90;;;;;;5030735;28;20114;-79
2023/08/02 05:00:16;;;;;;;11.65;4.85;;;15.50;99.90;;;;;;5033626;28;20176;-79
2023/08/02 05:02:42;;;;;;;10.52;5.28;;;15.60;99.90;;;;;;5029302;28;20044;-80
2023/08/02 05:05:08;;;;;;;13.10;5.30;;;15.60;99.90;;;;;;5016437;28;20049;-79
2023/08/02 05:07:35;;;;;;;13.95;4.82;;;15.60;99.90;;;;;;5033200;28;20490;-80
2023/08/02 05:10:04;;;;;;;11.30;5.28;;;15.60;99.90;;;;;;5032573;28;20514;-79
2023/08/02 05:12:38;;;;;;;12.40;5.53;;;15.50;99.90;;;;;;5016560;28;20041;-80
2023/08/02 05:15:04;;;;;;;14.43;5.57;;;15.50;99.90;;;;;;5033809;28;20041;-79
2023/08/02 05:17:30;;;;;;;13.65;5.50;;;15.50;99.90;;;;;;5016769;28;20048;-79
2023/08/02 05:19:57;;;;;;;12.23;5.70;;;15.50;99.90;;;;;;5033155;28;20433;-79
2023/08/02 05:22:22;;;;;;;15.38;5.38;;;15.60;99.90;;;;;;5003390;28;20528;-79
2023/08/02 05:24:52;;;;;;;11.73;5.35;;;15.60;99.90;;;;;;5007037;28;20088;-79
2023/08/02 05:27:18;;;;;;;12.27;4.80;;;15.60;99.90;;;;;;4996822;28;20449;-79
2023/08/02 05:29:44;;;;;;;11.25;5.55;;;15.50;99.90;;;;;;5013042;28;20046;-79
2023/08/02 05:32:10;;;;;;;9.98;4.45;;;15.60;99.90;;;;;;5030431;28;20042;-79
2023/08/02 05:34:35;;;;;;;13.23;5.78;;;15.60;99.90;;;;;;5026112;28;20026;-79
2023/08/02 05:37:01;;;;;;;11.57;4.97;;;15.60;99.90;;;;;;5013137;28;20502;-79
2023/08/02 05:39:26;;;;;;;11.55;5.07;;;15.60;99.90;;;;;;5013056;28;20069;-79
2023/08/02 05:41:52;;;;;;;11.52;5.07;;;15.80;99.90;;;;;;5029330;28;20045;-79
2023/08/02 05:44:17;;;;;;;11.85;4.05;;;15.70;99.90;;;;;;5011409;28;20034;-79
2023/08/02 05:46:43;;;;;;;12.85;5.00;;;15.80;99.90;;;;;;5014285;28;20478;-79
2023/08/02 05:49:09;;;;;;;12.60;5.15;;;15.90;99.90;;;;;;5014180;28;20044;-79
2023/08/02 05:51:35;;;;;;;11.05;5.38;;;16.00;99.90;;;;;;5008240;28;20033;-79
2023/08/02 05:54:00;;;;;;;15.25;4.72;;;15.80;99.90;;;;;;5010723;28;20033;-79
2023/08/02 05:56:26;;;;;;;9.70;5.10;;;15.80;99.90;;;;;;5012290;28;20576;-79
2023/08/02 05:58:51;;;;;;;11.35;5.57;;;16.00;99.90;;;;;;5014863;28;20030;-79
2023/08/02 06:01:17;;;;;;;14.20;6.13;;;16.00;99.90;;;;;;5015207;28;20037;-79
2023/08/02 06:03:42;;;;;;;10.90;4.97;;;16.00;99.90;;;;;;5032170;28;20080;-79
2023/08/02 06:06:08;;;;;;;14.35;6.30;;;15.90;99.90;;;;;;5013470;28;20041;-79
2023/08/02 06:08:33;;;;;;;14.75;6.72;;;16.00;99.90;;;;;;5015763;28;20045;-79
2023/08/02 06:11:01;;;;;;;12.43;6.35;;;15.90;99.90;;;;;;5012692;28;20040;-80
2023/08/02 06:13:27;;;;;;;13.18;6.28;;;16.00;99.90;;;;;;5027115;28;20069;-79
2023/08/02 06:15:52;;;;;;;14.75;6.90;;;16.10;99.90;;;;;;5014608;28;20397;-79
2023/08/02 06:18:18;;;;;;;14.25;6.65;;;16.00;99.90;;;;;;5024006;28;20121;-79
2023/08/02 06:20:43;;;;;;;11.02;5.97;;;16.00;99.90;;;;;;5015591;28;20041;-79
2023/08/02 06:23:09;;;;;;;13.65;6.63;;;16.30;99.90;;;;;;5018978;28;20038;-79
2023/08/02 06:25:35;;;;;;;13.55;7.07;;;16.20;99.90;;;;;;5024823;28;20045;-80
2023/08/02 06:28:00;;;;;;;15.45;6.15;;;16.00;99.90;;;;;;5014286;28;20054;-80
2023/08/02 06:30:26;;;;;;;13.50;5.90;;;16.10;99.90;;;;;;5013340;28;20041;-79
2023/08/02 06:32:51;;;;;;;15.23;6.20;;;16.10;99.90;;;;;;5018634;28;20091;-79
2023/08/02 06:35:17;;;;;;;12.57;6.00;;;16.10;99.90;;;;;;5012044;28;20120;-80
2023/08/02 06:37:42;;;;;;;12.68;5.93;;;16.20;99.90;;;;;;5013230;28;20045;-79
2023/08/02 06:40:09;;;;;;;12.70;5.55;;;16.10;99.90;;;;;;5013557;28;20508;-79
2023/08/02 06:42:34;;;;;;;12.32;5.43;;;16.10;99.90;;;;;;4995739;28;20069;-79
2023/08/02 06:45:00;;;;;;;9.95;5.65;;;16.10;99.90;;;;;;5014782;28;20135;-79
2023/08/02 06:47:26;;;;;;;10.50;5.28;;;16.20;99.90;;;;;;5013429;28;20046;-79
2023/08/02 06:49:51;;;;;;;10.65;4.93;;;16.20;99.90;;;;;;5015354;28;20045;-79
2023/08/02 06:52:17;;;;;;;12.38;4.95;;;16.30;99.90;;;;;;5030438;28;20045;-79
2023/08/02 06:54:43;;;;;;;12.27;4.45;;;16.60;99.90;;;;;;5012864;28;20044;-79
2023/08/02 06:57:09;;;;;;;12.55;4.60;;;16.60;99.90;;;;;;4995819;28;20042;-80
2023/08/02 06:59:34;;;;;;;11.23;4.90;;;16.60;99.90;;;;;;5015128;28;20101;-79
2023/08/02 07:02:00;;;;;;;16.05;4.90;;;16.60;99.90;;;;;;5032805;28;20467;-79
2023/08/02 07:04:25;;;;;;;9.00;3.58;;;16.40;99.90;;;;;;5014853;28;20040;-79
2023/08/02 07:06:51;;;;;;;9.80;4.10;;;16.60;99.90;;;;;;5014200;28;20482;-78
2023/08/02 07:09:16;;;;;;;12.10;5.10;;;16.60;99.90;;;;;;4995768;28;20038;-79
2023/08/02 07:11:42;;;;;;;9.73;4.05;;;16.40;99.90;;;;;;5028972;28;20042;-79
2023/08/02 07:14:08;;;;;;;9.85;3.70;;;16.50;99.90;;;;;;5032517;28;20041;-79
2023/08/02 07:16:33;;;;;;;8.63;4.00;;;16.40;99.90;;;;;;5015033;28;20033;-79
2023/08/02 07:19:02;;;;;;;12.38;4.63;;;16.50;99.90;;;;;;5018035;28;20406;-79
2023/08/02 07:21:29;;;;;;;14.38;4.20;;;16.50;99.90;;;;;;4996343;28;20038;-79
2023/08/02 07:23:55;;;;;;;11.48;4.00;;;16.50;99.90;;;;;;5014948;28;20120;-79
2023/08/02 07:26:22;;;;;;;12.43;4.60;;;16.50;99.90;;;;;;4999067;28;20485;-79
2023/08/02 07:28:48;;;;;;;12.27;4.15;;;16.50;99.90;;;;;;5004074;28;20072;-79
2023/08/02 07:31:14;;;;;;;10.23;4.32;;;16.50;99.90;;;;;;5034269;28;20083;-79
2023/08/02 07:33:40;;;;;;;10.23;3.63;;;16.60;99.90;;;;;;5017346;28;20050;-79
2023/08/02 07:36:12;;;;;;;10.32;4.20;;;16.60;99.90;;;;;;5016926;28;20044;-79
2023/08/02 07:38:37;;;;;;;10.57;4.00;;;16.70;99.90;;;;;;5024191;28;20041;-79
2023/08/02 07:41:04;;;;;;;12.88;4.05;;;16.70;99.90;;;;;;5025501;28;20061;-79
2023/08/02 07:43:30;;;;;;;9.45;4.00;;;16.70;99.90;;;;;;5020861;28;20405;-79
2023/08/02 07:45:55;;;;;;;10.30;4.38;;;16.90;99.90;;;;;;5016823;28;20049;-79
2023/08/02 07:48:21;;;;;;;11.98;4.15;;;17.00;99.90;;;;;;5012363;28;20049;-80
2023/08/02 07:50:47;;;;;;;6.25;2.85;;;16.90;99.90;;;;;;5014453;28;20597;-79
2023/08/02 07:53:12;;;;;;;13.98;3.83;;;17.10;99.90;;;;;;5015555;28;20060;-80
2023/08/02 07:55:38;;;;;;;10.60;3.80;;;17.20;99.90;;;;;;5032742;28;20082;-79
2023/08/02 07:58:03;;;;;;;11.52;4.10;;;17.10;99.90;;;;;;5025313;28;20064;-79
2023/08/02 08:00:29;;;;;;;7.60;3.30;;;17.20;99.90;;;;;;5006839;28;20029;-79
2023/08/02 08:02:54;;;;;;;8.93;3.40;;;17.20;99.90;;;;;;5023730;28;20562;-80
2023/08/02 08:05:20;;;;;;;8.35;3.33;;;17.30;99.90;;;;;;5026667;28;20056;-79
2023/08/02 08:07:45;;;;;;;11.93;3.00;;;17.30;99.90;;;;;;5007218;28;20057;-79
2023/08/02 08:10:11;;;;;;;11.32;3.60;;;17.20;99.90;;;;;;5032017;28;20397;-79
2023/08/02 08:12:37;;;;;;;10.30;3.67;;;17.10;99.90;;;;;;5017381;28;20060;-77
2023/08/02 08:15:03;;;;;;;7.13;2.80;;;17.10;99.90;;;;;;5031078;28;20056;-78
2023/08/02 08:17:29;;;;;;;9.88;3.25;;;17.10;99.90;;;;;;5029930;28;20112;-78
2023/08/02 08:19:54;;;;;;;8.95;3.53;;;17.10;99.90;;;;;;5031660;28;20121;-77
2023/08/02 08:22:22;;;;;;;11.32;3.20;;;17.00;99.90;;;;;;5032888;28;20050;-77
2023/08/02 08:24:48;;;;;;;9.48;3.50;;;17.00;99.90;;;;;;5024743;28;20486;-77
2023/08/02 08:27:13;;;;;;;11.15;3.17;;;16.90;99.90;;;;;;5027503;28;20057;-76
2023/08/02 08:29:39;;;;;;;8.82;3.28;;;16.80;99.90;;;;;;5016078;28;20052;-77
2023/08/02 08:32:05;;;;;;;7.28;2.70;;;16.80;99.90;;;;;;5032621;28;20049;-76
2023/08/02 08:34:30;;;;;;;8.93;3.28;;;16.80;99.90;;;;;;5024380;28;20470;-76
2023/08/02 08:36:56;;;;;;;9.45;3.40;;;16.80;99.90;;;;;;5030588;28;20029;-76
2023/08/02 08:39:21;;;;;;;10.65;3.60;;;16.70;99.90;;;;;;5008773;28;20045;-77
2023/08/02 08:41:47;;;;;;;9.88;3.60;;;16.50;99.90;;;;;;5031078;28;20048;-77
2023/08/02 08:44:13;;;;;;;9.18;3.40;;;16.50;99.90;;;;;;5028547;28;20034;-77
2023/08/02 08:46:40;;;;;;;10.93;3.90;;;16.40;99.90;;;;;;5030862;28;20068;-77
2023/08/02 08:49:05;;;;;;;9.43;3.60;;;16.40;99.90;;;;;;5025008;28;20472;-77
2023/08/02 08:51:34;;;;;;;9.73;3.92;;;16.30;99.90;;;;;;5032668;28;20108;-77
2023/08/02 08:54:10;;;;;;;8.60;3.33;;;16.30;99.90;;;;;;5031849;28;20114;-76
2023/08/02 08:56:40;;;;;;;9.88;3.70;;;16.30;99.90;;;;;;5015626;28;20037;-76
2023/08/02 08:59:07;;;;;;;11.07;4.15;;;16.30;99.90;;;;;;5014507;28;20233;-76
2023/08/02 09:01:33;;;;;;;8.50;3.60;;;16.30;99.90;;;;;;5015662;28;20441;-75
2023/08/02 09:03:59;;;;;;;7.07;2.85;;;16.50;99.90;;;;;;5010142;28;20033;-76
2023/08/02 09:06:26;;;;;;;8.88;3.30;;;16.70;99.90;;;;;;5008113;28;20053;-76
2023/08/02 09:08:51;;;;;;;8.88;3.30;;;16.60;99.90;;;;;;5010263;28;20041;-76
2023/08/02 09:11:17;;;;;;;8.60;3.38;;;16.60;99.90;;;;;;5025756;28;20037;-76
2023/08/02 09:13:42;;;;;;;9.48;3.75;;;16.60;99.90;;;;;;5015985;28;20044;-76
2023/08/02 09:16:08;;;;;;;9.18;3.47;;;16.60;99.90;;;;;;5025677;28;20049;-76
2023/08/02 09:18:45;;;;;;;8.43;3.28;;;16.60;99.90;;;;;;5030326;28;20037;-76
2023/08/02 09:21:15;;;;;;;8.60;3.17;;;16.70;99.90;;;;;;5030703;28;20121;-77
2023/08/02 09:23:58;;;;;;;8.55;3.85;;;16.60;99.90;;;;;;5032630;28;20486;-77
2023/08/02 09:26:24;;;;;;;9.30;4.07;;;16.60;99.90;;;;;;5032132;28;20560;-76
2023/08/02 09:29:03;;;;;;;9.48;3.72;;;16.50;99.90;;;;;;5014809;28;20129;-76
2023/08/02 09:31:31;;;;;;;8.25;3.83;;;16.50;99.90;;;;;;5012642;28;20517;-76
2023/08/02 09:33:57;;;;;;;9.27;4.53;;;16.50;99.90;;;;;;5002299;28;20155;-76
2023/08/02 09:36:28;;;;;;;9.48;4.20;;;16.40;99.90;;;;;;5032394;28;20045;-76
2023/08/02 09:39:18;;;;;;;12.05;4.50;;;16.50;99.90;;;;;;5020492;28;20079;-77
2023/08/02 09:41:44;;;;;;;10.43;4.38;;;16.40;99.90;;;;;;5027800;28;20044;-77
2023/08/02 09:44:20;;;;;;;9.23;4.28;;;16.40;99.90;;;;;;5032814;28;20038;-76
2023/08/02 09:46:46;;;;;;;10.30;4.25;;;16.50;99.90;;;;;;5011310;28;20030;-77
2023/08/02 09:49:22;;;;;;;7.47;3.65;;;16.50;99.90;;;;;;5028232;28;20099;-77
2023/08/02 09:51:47;;;;;;;10.32;4.20;;;16.50;99.90;;;;;;5026191;28;20045;-77
2023/08/02 09:54:16;;;;;;;10.30;4.30;;;16.60;99.90;;;;;;5015214;28;20064;-77
2023/08/02 09:56:42;;;;;;;7.82;3.95;;;16.50;99.90;;;;;;5015524;28;20041;-78
2023/08/02 09:59:08;;;;;;;7.88;4.20;;;16.60;99.90;;;;;;5009652;28;20073;-78
2023/08/02 10:01:35;;;;;;;9.75;4.78;;;16.60;99.90;;;;;;5013751;28;20046;-78
2023/08/02 10:04:09;;;;;;;9.48;4.20;;;16.50;99.90;;;;;;4996288;28;20406;-79
2023/08/02 10:06:40;;;;;;;9.15;4.20;;;16.60;99.90;;;;;;5005384;28;20033;-79
2023/08/02 10:09:07;;;;;;;10.00;3.92;;;16.50;99.90;;;;;;5024465;28;20096;-79
2023/08/02 10:11:55;;;;;;;7.57;4.03;;;16.60;99.90;;;;;;5012348;28;20045;-79
2023/08/02 10:14:21;;;;;;;9.32;4.00;;;16.60;99.90;;;;;;5015056;28;20077;-78
2023/08/02 10:16:47;;;;;;;7.32;3.60;;;16.70;99.90;;;;;;5029724;28;20472;-78
2023/08/02 10:19:13;;;;;;;8.43;3.88;;;16.60;99.90;;;;;;5012927;28;20046;-78
2023/08/02 10:21:43;;;;;;;6.88;2.97;;;16.60;99.90;;;;;;5020521;28;20037;-78
2023/08/02 10:24:12;;;;;;;6.30;3.05;;;16.80;99.90;;;;;;5032036;28;20037;-78
2023/08/02 10:26:38;;;;;;;5.43;2.50;;;16.80;99.90;;;;;;5031874;28;20056;-78
2023/08/02 10:29:05;;;;;;;7.53;3.50;;;16.70;99.90;;;;;;5025030;28;20048;-77
2023/08/02 10:31:31;;;;;;;6.35;3.20;;;16.70;99.90;;;;;;5030177;28;20037;-79
2023/08/02 10:33:56;;;;;;;5.45;2.60;;;16.70;99.90;;;;;;5032905;28;20409;-78
2023/08/02 10:36:23;;;;;;;6.45;2.90;;;16.60;99.90;;;;;;5014444;28;20034;-78
2023/08/02 10:38:53;;;;;;;5.13;2.60;;;16.60;99.90;;;;;;5025014;28;20041;-79
2023/08/02 10:41:26;;;;;;;4.75;2.28;;;16.60;99.90;;;;;;4999306;28;20605;-79
2023/08/02 10:44:00;;;;;;;4.95;2.20;;;16.70;99.90;;;;;;5016186;28;20512;-79
2023/08/02 10:46:28;;;;;;;4.85;2.40;;;16.70;99.90;;;;;;5038697;28;20045;-79
2023/08/02 10:48:56;;;;;;;3.85;1.80;;;16.70;99.90;;;;;;5011353;28;20045;-78
2023/08/02 10:51:38;;;;;;;4.05;2.15;;;16.80;99.90;;;;;;5024213;28;20109;-77
2023/08/02 10:54:21;;;;;;;3.20;1.63;;;16.70;99.90;;;;;;5024096;28;20046;-78
2023/08/02 10:56:53;;;;;;;3.45;1.85;;;16.70;99.90;;;;;;5026731;28;20030;-77
2023/08/02 10:59:25;;;;;;;3.17;1.60;;;16.70;99.90;;;;;;5010529;28;20034;-77
2023/08/02 11:02:11;;;;;;;5.40;1.70;;;16.70;99.90;;;;;;5029677;28;20123;-77
2023/08/02 11:04:43;;;;;;;3.08;1.50;;;16.80;99.90;;;;;;5019914;28;20052;-78
2023/08/02 11:07:29;;;;;;;;;;;16.90;99.90;;;;;;5018500;28;20055;-78
2023/08/02 11:09:55;;;;;;;3.90;1.60;;;17.00;99.90;;;;;;5032416;28;19995;-77
2023/08/02 11:12:22;;;;;;;1.75;1.33;;;17.20;99.90;;;;;;5018130;28;20050;-78
2023/08/02 11:14:50;;;;;;;3.50;1.67;;;17.10;99.90;;;;;;5002194;28;20044;-78
2023/08/02 11:17:17;;;;;;;3.65;1.90;;;17.10;99.90;;;;;;5033947;28;20034;-78
2023/08/02 11:19:48;;;;;;;3.90;1.40;;;17.20;99.90;;;;;;5028487;28;20123;-78
2023/08/02 11:22:13;;;;;;;3.05;1.40;;;17.30;99.90;;;;;;5034632;28;20041;-79
2023/08/02 11:24:52;;;;;;;2.05;1.30;;;17.30;99.90;;;;;;5014592;28;20486;-78
2023/08/02 11:27:21;;;;;;;3.95;1.60;;;17.30;99.90;;;;;;5014567;28;20044;-79
2023/08/02 11:30:05;;;;;;;2.13;1.30;;;17.20;99.90;;;;;;5001588;28;20041;-79
2023/08/02 11:32:32;;;;;;;2.22;1.20;;;17.20;99.90;;;;;;4999648;28;20052;-79
2023/08/02 11:34:58;;;;;;;2.38;1.10;;;17.20;99.90;;;;;;5032669;28;20053;-79
2023/08/02 11:37:25;;;;;;;1.85;0.93;;;17.40;99.90;;;;;;5005305;28;20037;-78
2023/08/02 11:39:53;;;;;;;4.18;1.35;;;17.50;99.90;;;;;;5032444;28;20037;-78
2023/08/02 11:42:19;;;;;;;1.77;1.08;;;17.50;99.90;;;;;;5027648;28;20042;-78
2023/08/02 11:44:44;;;;;;;1.73;1.00;;;17.50;99.90;;;;;;5032856;28;20386;-78
2023/08/02 11:47:10;;;;;;;2.15;1.17;;;17.60;99.90;;;;;;5014678;28;20037;-78
2023/08/02 11:49:55;;;;;;;2.88;1.17;;;17.60;99.90;;;;;;5014925;28;20072;-78
2023/08/02 11:52:29;;;;;;;1.30;0.90;;;17.80;99.90;;;;;;5032775;28;20099;-78
2023/08/02 11:54:55;;;;;;;2.33;1.08;;;17.80;99.90;;;;;;5034332;28;20367;-79
2023/08/02 11:57:23;;;;;;;1.30;0.80;;;17.80;99.90;;;;;;5032031;28;20041;-78
2023/08/02 11:59:50;;;;;;;3.95;1.17;;;17.90;99.90;;;;;;5016051;28;20048;-79
2023/08/02 12:02:30;;;;;;;2.22;1.20;;;17.80;99.90;;;;;;5016271;28;20037;-79
2023/08/02 12:04:57;;;;;;;2.03;1.20;;;17.80;99.90;;;;;;5028803;28;20156;-79
2023/08/02 12:07:33;;;;;;;1.77;0.98;;;17.80;99.90;;;;;;5016181;28;20053;-78
2023/08/02 12:10:04;;;;;;;1.13;1.02;;;18.00;99.90;;;;;;5028208;28;20128;-78
2023/08/02 12:12:35;;;;;;;2.15;1.10;;;18.10;99.90;;;;;;5008771;28;20041;-79
2023/08/02 12:15:11;;;;;;;3.40;1.50;;;18.10;99.90;;;;;;5029485;28;20029;-79
2023/08/02 12:17:37;;;;;;;2.13;1.15;;;18.10;99.90;;;;;;5027304;28;20038;-79
2023/08/02 12:20:05;;;;;;;3.08;1.60;;;18.20;99.90;;;;;;5046683;28;20091;-79
2023/08/02 12:22:46;;;;;;;1.98;1.30;;;18.00;99.90;;;;;;5017184;28;20413;-79
2023/08/02 12:25:11;;;;;;;1.90;1.38;;;18.00;99.90;;;;;;4997512;28;20524;-79
2023/08/02 12:27:37;;;;;;;3.00;1.70;;;18.20;99.90;;;;;;5029608;28;20053;-79
2023/08/02 12:30:16;;;;;;;2.63;1.67;;;18.30;99.90;;;;;;5031580;28;20045;-79
2023/08/02 12:32:42;;;;;;;3.10;1.98;;;18.30;99.90;;;;;;5013767;28;20033;-79
2023/08/02 12:35:09;;;;;;;3.95;1.90;;;18.20;99.90;;;;;;5033561;28;20037;-79
2023/08/02 12:37:35;;;;;;;4.63;2.20;;;18.10;99.90;;;;;;5024311;28;20161;-79
2023/08/02 12:40:02;;;;;;;3.78;2.10;;;18.00;99.90;;;;;;5029031;28;20041;-79
2023/08/02 12:42:28;;;;;;;3.30;2.22;;;18.10;99.90;;;;;;5032939;28;20041;-79
2023/08/02 12:44:53;;;;;;;3.00;2.00;;;18.20;99.90;;;;;;5032426;28;20489;-79